Time;durP1;ratioP1;P1;durP2;ratioP2;P2;SDS_P1;SDS_P2;PMS_P1;PMS_P2;Temp;Humidity;BMP_temperature;BMP_pressure;BME280_temperature;BME280_humidity;BME280_pressure;Samples;Min_cycle;Max_cycle;Signal;HPM_P1;HPM_P2
2022/08/12 00:45:18;;;;;;;2.55;1.73;;;;;;;;;;10494896;28;20020;-54
2022/08/12 00:50:22;;;;;;;2.38;1.60;;;;;;;;;;10494116;28;20017;-54
2022/08/12 00:55:23;;;;;;;2.90;1.77;;;;;;;;;;10494851;28;20397;-53
2022/08/12 01:00:24;;;;;;;3.13;1.40;;;;;;;;;;10493683;28;20040;-54
2022/08/12 01:16:08;;;;;;;4.25;1.60;;;;;;;;;;10494679;28;20107;-53
2022/08/12 01:21:32;;;;;;;2.92;1.50;;;;;;;;;;10493452;28;20488;-56
2022/08/12 01:26:33;;;;;;;2.30;1.58;;;;;;;;;;10492326;28;20033;-53
2022/08/12 01:31:36;;;;;;;4.20;1.80;;;;;;;;;;10492959;28;20111;-54
2022/08/12 01:36:45;;;;;;;2.45;1.70;;;;;;;;;;10493632;28;20135;-53
2022/08/12 01:41:58;;;;;;;3.58;1.52;;;;;;;;;;10508275;28;20040;-54
2022/08/12 01:47:29;;;;;;;1.92;1.60;;;;;;;;;;10479928;28;20483;-53
2022/08/12 01:52:35;;;;;;;2.95;1.55;;;;;;;;;;10491980;28;20028;-54
2022/08/12 01:57:52;;;;;;;2.15;1.33;;;;;;;;;;10492522;28;20476;-54
2022/08/12 02:14:40;;;;;;;1.63;1.30;;;;;;;;;;10479950;28;20495;-54
2022/08/12 02:20:16;;;;;;;1.30;1.20;;;;;;;;;;10491810;28;20040;-53
2022/08/12 02:25:28;;;;;;;3.63;1.35;;;;;;;;;;10489366;28;20147;-54
2022/08/12 02:30:33;;;;;;;1.50;1.33;;;;;;;;;;10489967;28;20154;-54
2022/08/12 02:35:35;;;;;;;3.33;1.60;;;;;;;;;;10490684;28;20037;-52
2022/08/12 02:40:42;;;;;;;1.33;1.08;;;;;;;;;;10491180;28;20028;-54
2022/08/12 02:46:11;;;;;;;1.50;1.30;;;;;;;;;;10490204;28;20040;-55
2022/08/12 02:51:28;;;;;;;1.08;0.98;;;;;;;;;;10490447;28;20036;-54
2022/08/12 02:56:29;;;;;;;1.60;1.33;;;;;;;;;;10489280;28;20044;-53
2022/08/12 03:01:33;;;;;;;2.35;1.33;;;;;;;;;;10490735;28;20051;-53
2022/08/12 03:06:44;;;;;;;2.33;1.30;;;;;;;;;;10496352;22;20044;-59
2022/08/12 03:12:03;;;;;;;1.17;1.05;;;;;;;;;;10464448;28;20037;-59
2022/08/12 03:17:10;;;;;;;1.67;0.98;;;;;;;;;;10455811;28;20107;-59
2022/08/12 03:22:13;;;;;;;2.75;1.23;;;;;;;;;;10457775;28;20032;-57
2022/08/12 03:27:14;;;;;;;1.77;1.15;;;;;;;;;;10466755;28;20028;-57
2022/08/12 03:32:17;;;;;;;1.50;1.23;;;;;;;;;;10456449;28;20029;-57
2022/08/12 03:37:19;;;;;;;4.20;1.27;;;;;;;;;;10473043;28;20103;-57
2022/08/12 03:42:29;;;;;;;3.15;1.10;;;;;;;;;;10455292;28;20115;-57
2022/08/12 04:03:51;;;;;;;1.15;1.05;;;;;;;;;;10472944;28;20068;-57
2022/08/12 04:08:58;;;;;;;1.38;1.15;;;;;;;;;;10460342;28;20301;-57
2022/08/12 04:14:12;;;;;;;2.50;1.30;;;;;;;;;;10472983;28;20120;-57
2022/08/12 04:19:14;;;;;;;1.70;1.15;;;;;;;;;;10448554;28;20384;-57
2022/08/12 04:24:17;;;;;;;3.80;1.10;;;;;;;;;;10459343;28;20476;-57
2022/08/12 04:29:22;;;;;;;4.55;1.05;;;;;;;;;;10467019;28;20395;-57
2022/08/12 04:34:24;;;;;;;2.15;1.10;;;;;;;;;;10485074;28;20373;-57
2022/08/12 04:39:26;;;;;;;1.27;1.13;;;;;;;;;;10470206;28;20531;-57
2022/08/12 04:44:26;;;;;;;1.20;1.10;;;;;;;;;;10476462;28;20031;-57
2022/08/12 04:49:29;;;;;;;1.92;1.33;;;;;;;;;;10470063;28;20036;-57
2022/08/12 04:54:30;;;;;;;1.48;1.23;;;;;;;;;;10460784;28;20029;-57
2022/08/12 04:59:32;;;;;;;1.23;1.13;;;;;;;;;;10464887;28;20056;-57
2022/08/12 05:04:33;;;;;;;1.40;1.13;;;;;;;;;;10453415;28;20049;-57
2022/08/12 05:09:34;;;;;;;2.10;1.30;;;;;;;;;;10471982;28;20068;-58
2022/08/12 05:14:34;;;;;;;3.22;1.50;;;;;;;;;;10454018;28;20029;-57
2022/08/12 05:19:35;;;;;;;1.67;1.10;;;;;;;;;;10462133;28;20028;-55
2022/08/12 05:24:36;;;;;;;3.83;1.40;;;;;;;;;;10488504;28;20017;-57
2022/08/12 05:29:38;;;;;;;4.47;1.90;;;;;;;;;;10452323;28;20025;-57
2022/08/12 05:34:39;;;;;;;2.63;1.65;;;;;;;;;;10451232;28;20375;-55
2022/08/12 05:39:40;;;;;;;5.13;2.05;;;;;;;;;;10447383;28;20036;-53
2022/08/12 05:44:41;;;;;;;3.33;1.90;;;;;;;;;;10463994;28;20033;-57
2022/08/12 05:49:42;;;;;;;4.82;2.20;;;;;;;;;;10467566;28;20029;-57
2022/08/12 05:54:43;;;;;;;4.07;2.05;;;;;;;;;;10461476;28;20028;-58
2022/08/12 05:59:44;;;;;;;6.13;2.08;;;;;;;;;;10465999;28;20110;-59
2022/08/12 06:04:45;;;;;;;4.82;2.10;;;;;;;;;;10453978;28;20056;-57
2022/08/12 06:09:46;;;;;;;4.25;1.98;;;;;;;;;;10458325;28;20037;-57
2022/08/12 06:14:47;;;;;;;3.15;2.08;;;;;;;;;;10468912;28;20025;-57
2022/08/12 06:19:47;;;;;;;5.43;1.80;;;;;;;;;;10460262;28;20428;-58
2022/08/12 06:24:48;;;;;;;4.97;1.95;;;;;;;;;;10481740;28;20116;-57
2022/08/12 06:29:49;;;;;;;2.60;1.67;;;;;;;;;;10481806;28;20096;-57
2022/08/12 06:34:51;;;;;;;6.60;1.73;;;;;;;;;;10471310;28;20036;-57
2022/08/12 06:39:51;;;;;;;3.42;1.58;;;;;;;;;;10463233;28;20025;-57
2022/08/12 06:44:52;;;;;;;4.72;1.80;;;;;;;;;;10477355;28;20033;-57
2022/08/12 06:49:52;;;;;;;5.47;1.70;;;;;;;;;;10489381;28;20565;-57
2022/08/12 06:54:54;;;;;;;2.30;1.85;;;;;;;;;;10462470;28;20456;-57
2022/08/12 06:59:55;;;;;;;3.05;1.63;;;;;;;;;;10476176;28;20042;-57
2022/08/12 07:04:56;;;;;;;4.70;1.65;;;;;;;;;;10476107;28;20393;-57
2022/08/12 07:09:57;;;;;;;4.43;1.80;;;;;;;;;;10466909;28;20279;-57
2022/08/12 07:15:00;;;;;;;3.20;1.58;;;;;;;;;;10457426;28;20016;-58
2022/08/12 07:20:01;;;;;;;3.67;1.75;;;;;;;;;;10476030;28;20039;-57
2022/08/12 07:30:21;;;;;;;2.95;1.50;;;;;;;;;;10476242;28;20091;-57
2022/08/12 07:35:22;;;;;;;1.48;1.38;;;;;;;;;;10470462;28;20017;-57
2022/08/12 07:40:25;;;;;;;2.72;1.80;;;;;;;;;;10466591;28;20488;-57
2022/08/12 07:45:25;;;;;;;1.90;1.42;;;;;;;;;;10475538;28;20251;-57
2022/08/12 07:50:26;;;;;;;2.40;1.70;;;;;;;;;;10461059;28;20235;-57
2022/08/12 07:55:27;;;;;;;4.55;1.55;;;;;;;;;;10489417;28;20028;-57
2022/08/12 08:00:33;;;;;;;3.05;1.52;;;;;;;;;;10464776;28;20063;-57
2022/08/12 08:05:45;;;;;;;1.33;1.20;;;;;;;;;;10495272;28;20041;-56
2022/08/12 08:10:48;;;;;;;2.30;1.30;;;;;;;;;;10483746;28;20063;-57
2022/08/12 08:15:52;;;;;;;2.83;1.30;;;;;;;;;;10485082;28;20059;-58
2022/08/12 08:20:55;;;;;;;4.85;1.63;;;;;;;;;;10473167;28;20094;-57
2022/08/12 08:25:56;;;;;;;2.13;1.20;;;;;;;;;;10481947;28;20099;-57
2022/08/12 08:30:57;;;;;;;1.20;1.15;;;;;;;;;;10467735;28;20071;-57
2022/08/12 08:35:59;;;;;;;1.83;1.40;;;;;;;;;;10455242;28;20021;-57
2022/08/12 08:46:24;;;;;;;2.72;1.58;;;;;;;;;;10470051;28;20029;-56
2022/08/12 08:51:25;;;;;;;2.95;1.33;;;;;;;;;;10467783;28;20032;-57
2022/08/12 08:56:29;;;;;;;1.38;1.27;;;;;;;;;;10481411;28;20476;-57
2022/08/12 09:01:29;;;;;;;3.28;1.33;;;;;;;;;;10466721;28;20487;-58
2022/08/12 09:06:30;;;;;;;3.45;1.45;;;;;;;;;;10476046;28;20045;-57
2022/08/12 09:16:49;;;;;;;2.83;1.20;;;;;;;;;;10467539;28;20021;-57
2022/08/12 09:21:51;;;;;;;1.58;1.20;;;;;;;;;;10475458;28;20028;-58
2022/08/12 09:26:51;;;;;;;2.95;1.25;;;;;;;;;;10493772;28;20082;-57
2022/08/12 09:31:52;;;;;;;5.35;1.60;;;;;;;;;;10488296;28;20063;-57
2022/08/12 09:36:53;;;;;;;1.55;1.40;;;;;;;;;;10451821;28;20479;-57
2022/08/12 09:47:12;;;;;;;1.30;1.20;;;;;;;;;;10469789;28;20024;-57
2022/08/12 09:52:14;;;;;;;1.33;1.20;;;;;;;;;;10492640;28;20020;-57
2022/08/12 09:57:20;;;;;;;1.60;1.40;;;;;;;;;;10489659;28;20021;-57
2022/08/12 10:02:22;;;;;;;3.78;1.63;;;;;;;;;;10465299;28;20029;-55
2022/08/12 10:07:22;;;;;;;2.15;1.40;;;;;;;;;;10479039;28;20052;-57
2022/08/12 10:17:42;;;;;;;1.90;1.50;;;;;;;;;;10458330;28;20029;-57
2022/08/12 10:22:54;;;;;;;3.40;1.15;;;;;;;;;;10476362;28;20391;-57
2022/08/12 10:33:14;;;;;;;2.45;1.40;;;;;;;;;;10464376;28;20025;-57
2022/08/12 10:38:16;;;;;;;1.33;1.20;;;;;;;;;;10464579;28;20025;-57
2022/08/12 10:48:37;;;;;;;1.48;1.17;;;;;;;;;;10453652;28;20074;-57
2022/08/12 10:53:38;;;;;;;2.85;1.25;;;;;;;;;;10476499;28;20028;-59
2022/08/12 10:58:39;;;;;;;1.98;1.23;;;;;;;;;;10476575;28;20035;-57
2022/08/12 11:03:40;;;;;;;1.45;1.30;;;;;;;;;;10473824;28;20053;-58
2022/08/12 11:08:41;;;;;;;2.22;1.42;;;;;;;;;;10476384;28;20119;-57
2022/08/12 11:13:42;;;;;;;3.08;1.35;;;;;;;;;;10462119;28;20125;-59
2022/08/12 11:18:43;;;;;;;2.17;1.40;;;;;;;;;;10451950;28;20021;-57
2022/08/12 11:23:43;;;;;;;1.95;1.30;;;;;;;;;;10445891;28;20037;-57
2022/08/12 11:28:44;;;;;;;3.33;1.20;;;;;;;;;;10447282;28;20036;-57
2022/08/12 11:33:44;;;;;;;2.70;1.58;;;;;;;;;;10477731;28;20048;-56
2022/08/12 11:38:45;;;;;;;1.95;1.30;;;;;;;;;;10472126;28;20025;-56
2022/08/12 11:43:46;;;;;;;3.83;1.33;;;;;;;;;;10456564;28;20427;-58
2022/08/12 11:48:46;;;;;;;7.68;1.63;;;;;;;;;;10455322;28;20644;-57
2022/08/12 11:53:47;;;;;;;1.60;1.50;;;;;;;;;;10474693;28;20021;-57
2022/08/12 11:58:48;;;;;;;1.63;1.40;;;;;;;;;;10476850;28;20031;-57
2022/08/12 12:03:48;;;;;;;7.65;1.58;;;;;;;;;;10472521;28;20049;-57
2022/08/12 12:08:49;;;;;;;2.72;1.50;;;;;;;;;;10475367;28;20102;-57
2022/08/12 12:13:50;;;;;;;2.60;1.55;;;;;;;;;;10469009;28;20035;-57
2022/08/12 12:18:50;;;;;;;2.63;1.30;;;;;;;;;;10455637;28;20025;-57
2022/08/12 12:23:52;;;;;;;3.15;1.40;;;;;;;;;;10456209;28;20021;-57
2022/08/12 12:28:52;;;;;;;2.72;1.50;;;;;;;;;;10453468;28;20072;-57
2022/08/12 12:33:53;;;;;;;1.88;1.50;;;;;;;;;;10449435;28;20057;-57
2022/08/12 12:38:54;;;;;;;3.10;1.60;;;;;;;;;;10448848;28;20464;-57
2022/08/12 12:43:54;;;;;;;1.55;1.33;;;;;;;;;;10473605;28;20491;-57
2022/08/12 12:48:55;;;;;;;2.13;1.65;;;;;;;;;;10471177;28;20428;-57
2022/08/12 12:53:56;;;;;;;2.15;1.40;;;;;;;;;;10482501;28;20475;-57
2022/08/12 12:58:57;;;;;;;2.00;1.40;;;;;;;;;;10470322;28;20029;-57
2022/08/12 13:03:57;;;;;;;2.05;1.38;;;;;;;;;;10457671;28;20052;-57
2022/08/12 13:09:00;;;;;;;1.75;1.30;;;;;;;;;;10468770;28;20036;-57
2022/08/12 13:14:00;;;;;;;1.65;1.30;;;;;;;;;;10445295;28;20079;-57
2022/08/12 13:19:01;;;;;;;4.82;1.60;;;;;;;;;;10456973;28;20032;-58
2022/08/12 13:24:02;;;;;;;2.00;1.50;;;;;;;;;;10455963;28;20025;-57
2022/08/12 13:29:03;;;;;;;5.18;1.90;;;;;;;;;;10457162;28;20025;-58
2022/08/12 13:34:04;;;;;;;2.53;1.50;;;;;;;;;;10461708;28;20044;-58
2022/08/12 13:39:04;;;;;;;2.75;1.55;;;;;;;;;;10459599;28;20021;-57
2022/08/12 13:44:08;;;;;;;4.35;1.27;;;;;;;;;;10475374;28;20041;-57
2022/08/12 13:49:10;;;;;;;5.38;1.60;;;;;;;;;;10475568;28;20020;-57
2022/08/12 13:54:10;;;;;;;2.90;1.58;;;;;;;;;;10476025;28;20056;-57
2022/08/12 13:59:12;;;;;;;5.88;1.55;;;;;;;;;;10459654;28;20085;-57
2022/08/12 14:04:12;;;;;;;2.25;1.48;;;;;;;;;;10469795;28;20044;-56
2022/08/12 14:09:15;;;;;;;2.80;1.70;;;;;;;;;;10462757;28;20041;-57
2022/08/12 14:14:15;;;;;;;2.90;1.60;;;;;;;;;;10459452;28;20041;-57
2022/08/12 14:19:16;;;;;;;3.75;1.55;;;;;;;;;;10452713;28;20031;-57
2022/08/12 14:24:16;;;;;;;1.73;1.52;;;;;;;;;;10456381;28;20020;-57
2022/08/12 14:29:17;;;;;;;2.95;1.45;;;;;;;;;;10459239;28;20464;-57
2022/08/12 14:34:19;;;;;;;3.33;1.60;;;;;;;;;;10452223;28;20510;-57
2022/08/12 14:39:19;;;;;;;2.67;1.85;;;;;;;;;;10472220;28;20021;-57
2022/08/12 14:44:21;;;;;;;1.77;1.42;;;;;;;;;;10464242;28;20029;-57
2022/08/12 14:49:21;;;;;;;2.05;1.20;;;;;;;;;;10463211;28;20079;-57
2022/08/12 14:54:22;;;;;;;6.15;1.85;;;;;;;;;;10455802;28;20102;-57
2022/08/12 15:04:54;;;;;;;4.83;1.43;;;;;;;;;;10443478;28;20087;-58
2022/08/12 15:09:55;;;;;;;4.38;1.50;;;;;;;;;;10462635;28;20040;-57
2022/08/12 15:14:58;;;;;;;5.03;1.40;;;;;;;;;;10469667;28;20036;-57
2022/08/12 15:19:59;;;;;;;2.00;1.45;;;;;;;;;;10461832;28;20472;-57
2022/08/12 15:24:59;;;;;;;2.85;1.58;;;;;;;;;;10469254;28;20033;-57
2022/08/12 15:30:00;;;;;;;2.28;1.67;;;;;;;;;;10469669;28;20029;-57
2022/08/12 15:35:00;;;;;;;3.72;1.17;;;;;;;;;;10464644;28;20021;-57
2022/08/12 15:40:01;;;;;;;2.47;1.63;;;;;;;;;;10489948;28;20352;-57
2022/08/12 15:45:02;;;;;;;3.92;1.50;;;;;;;;;;10489550;28;20028;-57
2022/08/12 15:50:03;;;;;;;2.85;1.58;;;;;;;;;;10449289;28;20155;-57
2022/08/12 15:55:06;;;;;;;2.10;1.50;;;;;;;;;;10462520;28;20240;-57
2022/08/12 16:00:07;;;;;;;4.00;1.30;;;;;;;;;;10446800;28;20360;-57
2022/08/12 16:05:08;;;;;;;2.10;1.33;;;;;;;;;;10462769;28;20049;-59
2022/08/12 16:10:09;;;;;;;1.90;1.23;;;;;;;;;;10466282;28;20033;-56
2022/08/12 16:15:13;;;;;;;2.60;1.42;;;;;;;;;;10477633;28;20087;-57
2022/08/12 16:20:21;;;;;;;4.25;1.40;;;;;;;;;;10466873;28;20334;-57
2022/08/12 16:25:21;;;;;;;2.05;1.58;;;;;;;;;;10474659;28;20024;-57
2022/08/12 16:30:29;;;;;;;1.60;1.27;;;;;;;;;;10490196;28;20025;-57
2022/08/12 16:35:31;;;;;;;;;;;;;;;;;;10490211;28;20052;-57
2022/08/12 16:40:33;;;;;;;1.80;1.23;;;;;;;;;;10486126;28;19913;-57
2022/08/12 16:45:38;;;;;;;2.38;1.30;;;;;;;;;;10471216;28;20029;-59
2022/08/12 16:50:39;;;;;;;3.58;1.40;;;;;;;;;;10475441;28;20036;-57
2022/08/12 16:55:41;;;;;;;1.10;1.00;;;;;;;;;;10458387;28;20037;-57
2022/08/12 17:00:41;;;;;;;2.40;0.98;;;;;;;;;;10460889;28;20040;-56
2022/08/12 17:05:48;;;;;;;1.95;0.93;;;;;;;;;;10471099;28;20051;-57
2022/08/12 17:10:50;;;;;;;3.43;0.90;;;;;;;;;;10464481;28;20040;-57
2022/08/12 17:15:51;;;;;;;3.67;1.00;;;;;;;;;;10484785;28;20483;-57
2022/08/12 17:20:53;;;;;;;2.05;0.90;;;;;;;;;;10462325;28;20028;-57
2022/08/12 17:25:54;;;;;;;1.65;1.00;;;;;;;;;;10460421;28;20067;-57
2022/08/12 17:30:55;;;;;;;1.55;1.00;;;;;;;;;;10455699;28;20074;-57
2022/08/12 17:35:57;;;;;;;1.30;0.80;;;;;;;;;;10457466;28;20423;-57
2022/08/12 17:40:57;;;;;;;1.55;0.90;;;;;;;;;;10462885;28;20025;-57
2022/08/12 17:46:00;;;;;;;1.42;0.90;;;;;;;;;;10465923;28;20459;-57
2022/08/12 17:51:11;;;;;;;0.80;0.80;;;;;;;;;;10450934;28;20040;-57
2022/08/12 17:56:12;;;;;;;0.88;0.80;;;;;;;;;;10461662;28;21498;-56
2022/08/12 18:01:16;;;;;;;0.95;0.82;;;;;;;;;;10446553;28;20060;-57
2022/08/12 18:06:16;;;;;;;0.80;0.80;;;;;;;;;;10455386;28;20239;-57
2022/08/12 18:16:40;;;;;;;0.95;0.90;;;;;;;;;;10451701;28;20024;-57
2022/08/12 18:21:41;;;;;;;1.90;0.80;;;;;;;;;;10452034;28;20040;-57
2022/08/12 18:26:43;;;;;;;0.80;0.80;;;;;;;;;;10451119;28;20398;-57
2022/08/12 18:31:45;;;;;;;1.33;1.00;;;;;;;;;;10451938;28;20454;-57
2022/08/12 18:36:46;;;;;;;1.17;0.80;;;;;;;;;;10463825;28;20021;-57
2022/08/12 18:41:48;;;;;;;1.30;0.90;;;;;;;;;;10465931;28;20028;-57
2022/08/12 18:46:55;;;;;;;1.10;0.90;;;;;;;;;;10456487;28;20457;-58
2022/08/12 18:52:00;;;;;;;;;;;;;;;;;;10455024;28;20491;-57
2022/08/12 18:57:06;;;;;;;1.15;1.05;;;;;;;;;;10454348;28;19966;-57
2022/08/12 19:02:07;;;;;;;1.10;0.85;;;;;;;;;;10456114;28;20048;-57
2022/08/12 19:07:23;;;;;;;1.23;0.95;;;;;;;;;;10455964;28;20113;-57
2022/08/12 19:17:44;;;;;;;1.50;0.98;;;;;;;;;;10460381;28;20025;-58
2022/08/12 19:22:46;;;;;;;1.60;1.10;;;;;;;;;;10477322;28;20031;-57
2022/08/12 19:27:51;;;;;;;3.03;1.30;;;;;;;;;;10475486;28;20027;-57
2022/08/12 19:32:52;;;;;;;2.10;1.30;;;;;;;;;;10477054;28;20025;-58
2022/08/12 19:37:56;;;;;;;2.05;1.40;;;;;;;;;;10462727;28;20029;-57
2022/08/12 19:42:57;;;;;;;2.85;1.58;;;;;;;;;;10462392;28;20164;-57
2022/08/12 19:48:01;;;;;;;4.57;1.77;;;;;;;;;;10462686;28;20400;-57
2022/08/12 19:53:03;;;;;;;1.98;1.40;;;;;;;;;;10476179;28;20410;-57
2022/08/12 19:58:09;;;;;;;2.03;1.33;;;;;;;;;;10462854;28;20086;-57
2022/08/12 20:03:11;;;;;;;2.20;1.38;;;;;;;;;;10473637;28;20134;-57
2022/08/12 20:08:12;;;;;;;3.00;1.67;;;;;;;;;;10466140;28;20044;-58
2022/08/12 20:13:17;;;;;;;4.07;1.88;;;;;;;;;;10455914;28;20028;-58
2022/08/12 20:18:18;;;;;;;6.10;1.70;;;;;;;;;;10455231;28;20017;-57
2022/08/12 20:23:23;;;;;;;3.70;2.20;;;;;;;;;;10454885;28;20017;-58
2022/08/12 20:28:23;;;;;;;4.55;1.92;;;;;;;;;;10455156;28;20576;-57
2022/08/12 20:33:24;;;;;;;5.47;2.25;;;;;;;;;;10454978;28;20095;-57
2022/08/12 20:38:26;;;;;;;3.72;2.00;;;;;;;;;;10468743;28;20027;-57
2022/08/12 20:43:27;;;;;;;2.63;1.85;;;;;;;;;;10480424;28;20399;-57
2022/08/12 20:48:27;;;;;;;3.92;1.50;;;;;;;;;;10472578;28;20032;-57
2022/08/12 20:53:28;;;;;;;4.65;2.15;;;;;;;;;;10480298;28;20021;-58
2022/08/12 20:58:29;;;;;;;2.13;1.50;;;;;;;;;;10490302;28;20031;-57
2022/08/12 21:08:49;;;;;;;3.22;1.90;;;;;;;;;;10462167;28;20381;-57
2022/08/12 21:13:50;;;;;;;3.97;1.75;;;;;;;;;;10472662;28;20028;-58
2022/08/12 21:18:51;;;;;;;3.67;2.00;;;;;;;;;;10468094;28;20036;-57
2022/08/12 21:23:52;;;;;;;3.50;2.03;;;;;;;;;;10474202;28;20032;-57
2022/08/12 21:28:56;;;;;;;3.13;1.65;;;;;;;;;;10469903;28;20040;-56
2022/08/12 21:33:57;;;;;;;2.72;2.10;;;;;;;;;;10472672;28;20025;-56
2022/08/12 21:39:25;;;;;;;3.25;1.77;;;;;;;;;;10452097;28;20021;-56
2022/08/12 21:44:31;;;;;;;3.53;1.88;;;;;;;;;;10462515;28;20040;-56
2022/08/12 21:49:36;;;;;;;2.75;1.35;;;;;;;;;;10476478;28;20037;-56
2022/08/12 21:54:41;;;;;;;5.18;1.55;;;;;;;;;;10476849;28;20089;-57
2022/08/12 21:59:42;;;;;;;2.35;1.40;;;;;;;;;;10460496;28;20034;-56
2022/08/12 22:10:09;;;;;;;4.43;1.70;;;;;;;;;;10438219;28;20742;-57
2022/08/12 22:15:11;;;;;;;3.05;1.65;;;;;;;;;;10463601;28;20036;-58
2022/08/12 22:20:16;;;;;;;3.53;1.40;;;;;;;;;;10462588;28;20028;-58
2022/08/12 22:25:20;;;;;;;2.50;1.50;;;;;;;;;;10464990;28;20162;-58
2022/08/12 22:35:42;;;;;;;2.63;1.52;;;;;;;;;;10450299;28;20036;-57
2022/08/12 22:40:51;;;;;;;5.00;1.40;;;;;;;;;;10470260;28;20122;-57
2022/08/12 22:51:11;;;;;;;3.08;1.50;;;;;;;;;;10476846;28;20025;-56
2022/08/12 22:56:12;;;;;;;1.42;1.15;;;;;;;;;;10474625;28;20017;-57
2022/08/12 23:01:13;;;;;;;3.50;1.50;;;;;;;;;;10472527;28;20028;-56
2022/08/12 23:06:15;;;;;;;2.17;1.30;;;;;;;;;;10475329;28;20044;-57
2022/08/12 23:11:19;;;;;;;5.22;1.90;;;;;;;;;;10491140;28;20020;-57
2022/08/12 23:16:21;;;;;;;2.88;1.25;;;;;;;;;;10447422;28;20479;-57
2022/08/12 23:21:21;;;;;;;1.58;1.48;;;;;;;;;;10469133;28;20392;-57
2022/08/12 23:29:13;;;;;;;3.38;1.30;;;;;;;;;;10457268;28;20041;-57
2022/08/12 23:31:47;;;;;;;2.67;1.27;;;;;;;;;;10459240;28;20032;-56
2022/08/12 23:36:50;;;;;;;1.90;1.42;;;;;;;;;;10452249;28;20507;-56
2022/08/12 23:41:53;;;;;;;2.47;1.40;;;;;;;;;;10465307;28;20500;-55
2022/08/12 23:46:58;;;;;;;2.78;1.50;;;;;;;;;;10472609;28;20058;-56
2022/08/12 23:52:05;;;;;;;1.63;1.20;;;;;;;;;;10481403;28;20029;-56
2022/08/12 23:57:15;;;;;;;1.50;1.40;;;;;;;;;;10482478;28;20056;-57
